• Join FlightAware (Why Join?)
  • Login
  • US Flag 
03:47AM EST


 

Airport Tracker/Info


-or-


 

Live Flight TrackerFlight Track Log ✈ N888FM ✈ 22-Apr-2013 ✈ KORH - KBGM

Flight Track Log - Related Links

Times and Time Zones

All times are in EDT time to prevent confusion due to time zone crossing. See the N888FM flight status page for this flight to view local times or setup timezone preferences in your user account.

Time Position Orientation Groundspeed Altitude Reporting Facility
EDT Latitude Longitude Course Direction KTS MPH feet Rate Location/Type
02:34PM 42.2531 -71.8511 236° Southwest 170 196 2,400  Level Boston Center
02:35PM 42.2139 -71.9300 236° Southwest 203 234 6,000 1,980 Climbing Boston Center
02:36PM 42.2203 -72.0111 276° West 220 253 8,100 1,860 Climbing Boston Center
02:37PM 42.2269 -72.1036 276° West 220 253 10,100 1,800 Climbing Boston Center
02:38PM 42.2333 -72.1764 277° West 220 253 11,700 1,800 Climbing Boston Center
02:39PM 42.2397 -72.2633 276° West 220 253 13,700 1,680 Climbing Boston Center
02:41PM 42.2461 -72.3308 277° West 215 247 15,400 1,680 Climbing Boston Center
02:42PM 42.2525 -72.4178 276° West 210 242 17,500 1,260 Climbing Boston Center
02:43PM 42.2586 -72.5017 276° West 201 231 18,000 240 Climbing Boston Center
02:44PM 42.2647 -72.5831 276° West 227 261 18,000  Level Boston Center
02:45PM 42.2708 -72.6703 275° West 254 292 18,000  Level Boston Center
02:46PM 42.2811 -72.7908 277° West 266 306 18,000  Level Boston Center
02:47PM 42.2869 -72.8836 275° West 276 318 18,000  Level Boston Center
02:48PM 42.2906 -72.9958 273° West 276 318 18,000  Level Boston Center
02:49PM 42.2839 -73.0883 264° West 271 312 18,000  Level Boston Center
02:50PM 42.2811 -73.2006 268° West 271 312 18,000  Level Boston Center
02:51PM 42.2764 -73.2958 266° West 276 318 18,000  Level Boston Center
02:52PM 42.2692 -73.4108 265° West 276 318 18,000  Level Boston Center
02:53PM 42.2642 -73.5117 266° West 276 318 18,000  Level Boston Center
02:54PM 42.2589 -73.6156 266° West 276 318 18,000  Level Boston Center
02:55PM 42.2539 -73.6994 265° West 276 318 18,000  Level Boston Center
02:56PM 42.2483 -73.8172 266° West 269 310 18,000  Level Boston Center
02:57PM 42.2428 -73.9125 266° West 274 315 18,000  Level Boston Center
02:58PM 42.2350 -74.0272 265° West 274 315 18,000  Level Boston Center
02:59PM 42.2294 -74.1308 266° West 274 315 18,000  Level Boston Center
03:00PM 42.2236 -74.2372 266° West 279 321 18,000  Level Boston Center
03:01PM 42.2178 -74.3381 266° West 279 321 18,000  Level Boston Center
03:02PM 42.2119 -74.4331 265° West 279 321 18,000  Level Boston Center
03:03PM 42.2039 -74.5394 264° West 279 321 18,000 -180 Level Boston Center
03:04PM 42.1978 -74.6428 265° West 285 328 17,700 -660 Descending Boston Center
03:05PM 42.1914 -74.7547 266° West 296 341 16,700 -1,020 Descending Boston Center
03:06PM 42.1847 -74.8639 265° West 296 341 15,700 -1,020 Descending Boston Center
03:08PM 42.1668 -75.0457 270° West  Level FlightAware Approximate
03:15PM 42.1638 -75.7056 266° West  Level FlightAware Approximate
03:16PM 42.1809 -75.8070 289° West  Level FlightAware Approximate
03:17PM 42.1919 -75.9099 281° West  Level FlightAware Approximate
03:18PM 42.2000 -75.9667 North  Level FlightAware Approximate
03:19PM 42.2086 -75.9797 North  Level Estimated
03:20PM 42.2086 -75.9797 North  Level Estimated
03:21PM 42.2086 -75.9797 North  Level Estimated
03:22PM 42.2086 -75.9797 North  Level Estimated
03:23PM 42.2086 -75.9797 North  Level Estimated